Irish Sea — WDB5555 — position and weather

sailwx.info

Track history (hours):
 
Tides and Currents Weather Stations Pressure Air Temp Water Temp Dewpoint Dewpoint Depression Visibility Wind Speed Wind Dir Waves Ship Positions

Irish Sea

Owner: Kirby Offshore Marine, LLC, Staten Island, NY. More information available from US FCC via Universal Licensing System and Coast Guard Vessel Documentation Center.

Last reported at 2015-Mar-02 21:07 UTC. Time now 2015-Mar-04 11:22 UTC.
Position N 40°34' W 074°02'.

Length 152 m; draft 6.8 m.

Type: Ship (hazmat cat B). MMSI: 366910920.

Date/timePositionNaut miles runAvg speedWind from/ knotsBaromVisibWave heightAir tempDewpointWater temp
2015-Mar-02 21:07N 40°34' W 074°02'5 9.5
2015-Mar-02 20:33N 40°39' W 074°03'5 0.2
2015-Mar-01 23:33N 40°43' W 073°58'5 4.8
2015-Mar-01 22:33N 40°40' W 074°03'4 1.3
2015-Mar-01 19:23N 40°36' W 074°02'0 0.2
2015-Mar-01 18:31N 40°36' W 074°01'59 7.2
2015-Mar-01 10:14N 39°36' W 074°03'62 7.6
2015-Mar-01 02:12N 38°49' W 074°54'5 8.1
2015-Mar-01 01:33N 38°48' W 075°00'12 8.3
2015-Mar-01 00:09N 38°59' W 075°08'7 7.7
2015-Feb-28 23:18N 39°05' W 075°11'5 7.2
2015-Feb-28 22:33N 39°09' W 075°15'6 6.5
2015-Feb-28 21:33N 39°15' W 075°19'7 6.9
2015-Feb-28 20:33N 39°20' W 075°25'8 7.6
2015-Feb-28 19:33N 39°26' W 075°32'9 8.5
2015-Feb-28 18:33N 39°34' W 075°33'2 2.1
2015-Feb-28 17:33N 39°35' W 075°36'0 0.0
2015-Feb-28 16:33N 39°35' W 075°36'0 0.0
2015-Feb-28 15:33N 39°35' W 075°36'0 0.0
2015-Feb-28 14:33N 39°35' W 075°36'0 0.0
2015-Feb-28 13:33N 39°35' W 075°36'0 0.0
2015-Feb-28 12:33N 39°35' W 075°36'0 0.0
2015-Feb-28 11:33N 39°35' W 075°36'0 0.0
2015-Feb-28 10:33N 39°35' W 075°36'0 0.0
2015-Feb-28 09:33N 39°35' W 075°36'0 0.0
2015-Feb-28 08:33N 39°35' W 075°36'0 0.0
2015-Feb-28 07:33N 39°35' W 075°36'0 0.0
2015-Feb-28 06:33N 39°35' W 075°36'0 0.0
2015-Feb-28 05:33N 39°35' W 075°36'0 0.0
2015-Feb-28 04:33N 39°35' W 075°36'0 0.0
2015-Feb-28 03:33N 39°35' W 075°36'0 0.0
2015-Feb-28 02:33N 39°35' W 075°36'0 0.0
2015-Feb-28 01:33N 39°35' W 075°36'0 0.0
2015-Feb-28 00:33N 39°35' W 075°36'0 0.0
2015-Feb-27 23:33N 39°35' W 075°36'0 0.0
2015-Feb-27 22:33N 39°35' W 075°36'0 0.1
2015-Feb-27 21:33N 39°35' W 075°36'3 2.8
2015-Feb-27 20:33N 39°33' W 075°33'0 0.1
2015-Feb-27 19:33N 39°33' W 075°33'0 0.0
2015-Feb-27 18:33N 39°33' W 075°33'0 0.0
2015-Feb-27 17:33N 39°33' W 075°33'6 6.3
2015-Feb-27 16:33N 39°27' W 075°33'7 6.9
2015-Feb-27 15:33N 39°22' W 075°27'8 7.7
2015-Feb-27 14:33N 39°16' W 075°20'8 8.2
2015-Feb-27 13:33N 39°09' W 075°15'17 8.6
2015-Feb-27 11:33N 38°54' W 075°05'8 7.8
2015-Feb-27 10:33N 38°49' W 074°57'59 9.7
2015-Feb-27 04:32N 39°32' W 074°07'1010.1
2015-Feb-27 03:32N 39°41' W 074°01'10 9.8
2015-Feb-27 02:32N 39°51' W 073°57'49 9.8
2015-Feb-26 21:32N 40°40' W 074°02'9 0.4
2015-Feb-26 02:23N 40°47' W 073°56'6 5.9
2015-Feb-26 01:23N 40°42' W 074°00'5 6.1
2015-Feb-26 00:30N 40°39' W 074°06'0 0.1
2015-Feb-25 23:21N 40°39' W 074°07'2 0.3
2015-Feb-25 17:11N 40°38' W 074°09'2 0.9
2015-Feb-25 15:23N 40°39' W 074°07'3 0.3
2015-Feb-25 08:03N 40°39' W 074°10'3 0.3
2015-Feb-25 00:33N 40°39' W 074°07'0 0.0
2015-Feb-24 23:33N 40°39' W 074°07'1 0.2
2015-Feb-24 18:33N 40°39' W 074°08'1 0.9
2015-Feb-24 17:31N 40°39' W 074°07'3 3.1
2015-Feb-24 16:34N 40°38' W 074°03'1 1.1
2015-Feb-24 15:33N 40°39' W 074°02'0 0.1
2015-Feb-24 14:30N 40°39' W 074°03'0 0.2
2015-Feb-24 13:33N 40°39' W 074°02'0 0.1
2015-Feb-24 12:24N 40°39' W 074°03'0 0.0
2015-Feb-24 11:30N 40°39' W 074°03'0 0.0
2015-Feb-24 10:30N 40°39' W 074°03'0 0.0
2015-Feb-24 09:24N 40°39' W 074°03'0 0.0
2015-Feb-24 08:30N 40°39' W 074°03'0 0.0
2015-Feb-24 07:30N 40°39' W 074°03'0 0.1
2015-Feb-24 06:30N 40°39' W 074°03'0 0.1
2015-Feb-24 05:30N 40°39' W 074°02'0 0.0
2015-Feb-24 04:30N 40°39' W 074°02'0 0.0
2015-Feb-24 03:30N 40°39' W 074°03'0 0.0
2015-Feb-24 02:30N 40°39' W 074°02'0 0.0
2015-Feb-24 01:30N 40°39' W 074°02'0 0.0
2015-Feb-24 00:30N 40°39' W 074°02'0 0.1
2015-Feb-23 23:30N 40°39' W 074°03'0 0.0
2015-Feb-23 22:30N 40°39' W 074°03'0 0.0
2015-Feb-23 21:30N 40°39' W 074°03'0 0.0
2015-Feb-23 20:30N 40°39' W 074°03'0 0.0
2015-Feb-23 19:33N 40°39' W 074°03'0 0.0
2015-Feb-23 18:30N 40°39' W 074°02'0 0.0
2015-Feb-23 17:30N 40°39' W 074°02'0 0.1
2015-Feb-23 16:30N 40°39' W 074°02'0 0.3
2015-Feb-23 15:33N 40°39' W 074°02'6 6.2
2015-Feb-23 14:33N 40°45' W 073°58'5 0.8
2015-Feb-23 09:09N 40°48' W 073°54'0 0.0
2015-Feb-23 06:20N 40°48' W 073°54'4 4.7
2015-Feb-23 05:33N 40°45' W 073°58'6 5.5
2015-Feb-23 04:33N 40°41' W 074°02'2 2.1
2015-Feb-23 03:33N 40°39' W 074°03'0 0.0
2015-Feb-23 02:33N 40°39' W 074°03'5 4.6
2015-Feb-23 01:33N 40°38' W 074°09'1 0.4
2015-Feb-22 23:26N 40°39' W 074°10'0 0.0
2015-Feb-22 21:31N 40°39' W 074°10'0 0.0
2015-Feb-22 20:33N 40°39' W 074°10'0 0.2
2015-Feb-22 19:28N 40°39' W 074°10'4 4.9
2015-Feb-22 18:33N 40°39' W 074°04'8 0.3
2015-Feb-21 16:12N 40°46' W 073°57'4 6.4
2015-Feb-21 15:33N 40°42' W 074°00'4 3.6
2015-Feb-21 14:33N 40°39' W 074°03'0 0.1
2015-Feb-21 13:30N 40°39' W 074°03'0 0.1
2015-Feb-21 12:30N 40°39' W 074°03'0 0.0
2015-Feb-21 11:30N 40°39' W 074°03'0 0.2
2015-Feb-21 10:30N 40°39' W 074°03'0 0.1
2015-Feb-21 09:33N 40°39' W 074°03'4 3.4
2015-Feb-21 08:29N 40°35' W 074°02'56 7.0
2015-Feb-21 00:29N 39°40' W 074°05'  
Track history (hours):
 
Tides and Currents Weather Stations Pressure Air Temp Water Temp Dewpoint Dewpoint Depression Visibility Wind Speed Wind Dir Waves Ship Positions

Irish Sea

Owner: Kirby Offshore Marine, LLC, Staten Island, NY. More information available from US FCC via Universal Licensing System and Coast Guard Vessel Documentation Center.

Last reported at 2015-Mar-02 21:07 UTC. Time now 2015-Mar-04 11:22 UTC.
Position N 40°34' W 074°02'.

Length 152 m; draft 6.8 m.

Type: Ship (hazmat cat B). MMSI: 366910920.

Date/timePositionNaut miles runAvg speedWind from/ knotsBaromVisibWave heightAir tempDewpointWater temp
2015-Mar-02 21:07N 40°34' W 074°02'5 9.5
2015-Mar-02 20:33N 40°39' W 074°03'5 0.2
2015-Mar-01 23:33N 40°43' W 073°58'5 4.8
2015-Mar-01 22:33N 40°40' W 074°03'4 1.3
2015-Mar-01 19:23N 40°36' W 074°02'0 0.2
2015-Mar-01 18:31N 40°36' W 074°01'59 7.2
2015-Mar-01 10:14N 39°36' W 074°03'62 7.6
2015-Mar-01 02:12N 38°49' W 074°54'5 8.1
2015-Mar-01 01:33N 38°48' W 075°00'12 8.3
2015-Mar-01 00:09N 38°59' W 075°08'7 7.7
2015-Feb-28 23:18N 39°05' W 075°11'5 7.2
2015-Feb-28 22:33N 39°09' W 075°15'6 6.5
2015-Feb-28 21:33N 39°15' W 075°19'7 6.9
2015-Feb-28 20:33N 39°20' W 075°25'8 7.6
2015-Feb-28 19:33N 39°26' W 075°32'9 8.5
2015-Feb-28 18:33N 39°34' W 075°33'2 2.1
2015-Feb-28 17:33N 39°35' W 075°36'0 0.0
2015-Feb-28 16:33N 39°35' W 075°36'0 0.0
2015-Feb-28 15:33N 39°35' W 075°36'0 0.0
2015-Feb-28 14:33N 39°35' W 075°36'0 0.0
2015-Feb-28 13:33N 39°35' W 075°36'0 0.0
2015-Feb-28 12:33N 39°35' W 075°36'0 0.0
2015-Feb-28 11:33N 39°35' W 075°36'0 0.0
2015-Feb-28 10:33N 39°35' W 075°36'0 0.0
2015-Feb-28 09:33N 39°35' W 075°36'0 0.0
2015-Feb-28 08:33N 39°35' W 075°36'0 0.0
2015-Feb-28 07:33N 39°35' W 075°36'0 0.0
2015-Feb-28 06:33N 39°35' W 075°36'0 0.0
2015-Feb-28 05:33N 39°35' W 075°36'0 0.0
2015-Feb-28 04:33N 39°35' W 075°36'0 0.0
2015-Feb-28 03:33N 39°35' W 075°36'0 0.0
2015-Feb-28 02:33N 39°35' W 075°36'0 0.0
2015-Feb-28 01:33N 39°35' W 075°36'0 0.0
2015-Feb-28 00:33N 39°35' W 075°36'0 0.0
2015-Feb-27 23:33N 39°35' W 075°36'0 0.0
2015-Feb-27 22:33N 39°35' W 075°36'0 0.1
2015-Feb-27 21:33N 39°35' W 075°36'3 2.8
2015-Feb-27 20:33N 39°33' W 075°33'0 0.1
2015-Feb-27 19:33N 39°33' W 075°33'0 0.0
2015-Feb-27 18:33N 39°33' W 075°33'0 0.0
2015-Feb-27 17:33N 39°33' W 075°33'6 6.3
2015-Feb-27 16:33N 39°27' W 075°33'7 6.9
2015-Feb-27 15:33N 39°22' W 075°27'8 7.7
2015-Feb-27 14:33N 39°16' W 075°20'8 8.2
2015-Feb-27 13:33N 39°09' W 075°15'17 8.6
2015-Feb-27 11:33N 38°54' W 075°05'8 7.8
2015-Feb-27 10:33N 38°49' W 074°57'59 9.7
2015-Feb-27 04:32N 39°32' W 074°07'1010.1
2015-Feb-27 03:32N 39°41' W 074°01'10 9.8
2015-Feb-27 02:32N 39°51' W 073°57'49 9.8
2015-Feb-26 21:32N 40°40' W 074°02'9 0.4
2015-Feb-26 02:23N 40°47' W 073°56'6 5.9
2015-Feb-26 01:23N 40°42' W 074°00'5 6.1
2015-Feb-26 00:30N 40°39' W 074°06'0 0.1
2015-Feb-25 23:21N 40°39' W 074°07'2 0.3
2015-Feb-25 17:11N 40°38' W 074°09'2 0.9
2015-Feb-25 15:23N 40°39' W 074°07'3 0.3
2015-Feb-25 08:03N 40°39' W 074°10'3 0.3
2015-Feb-25 00:33N 40°39' W 074°07'0 0.0
2015-Feb-24 23:33N 40°39' W 074°07'1 0.2
2015-Feb-24 18:33N 40°39' W 074°08'1 0.9
2015-Feb-24 17:31N 40°39' W 074°07'3 3.1
2015-Feb-24 16:34N 40°38' W 074°03'1 1.1
2015-Feb-24 15:33N 40°39' W 074°02'0 0.1
2015-Feb-24 14:30N 40°39' W 074°03'0 0.2
2015-Feb-24 13:33N 40°39' W 074°02'0 0.1
2015-Feb-24 12:24N 40°39' W 074°03'0 0.0
2015-Feb-24 11:30N 40°39' W 074°03'0 0.0
2015-Feb-24 10:30N 40°39' W 074°03'0 0.0
2015-Feb-24 09:24N 40°39' W 074°03'0 0.0
2015-Feb-24 08:30N 40°39' W 074°03'0 0.0
2015-Feb-24 07:30N 40°39' W 074°03'0 0.1
2015-Feb-24 06:30N 40°39' W 074°03'0 0.1
2015-Feb-24 05:30N 40°39' W 074°02'0 0.0
2015-Feb-24 04:30N 40°39' W 074°02'0 0.0
2015-Feb-24 03:30N 40°39' W 074°03'0 0.0
2015-Feb-24 02:30N 40°39' W 074°02'0 0.0
2015-Feb-24 01:30N 40°39' W 074°02'0 0.0
2015-Feb-24 00:30N 40°39' W 074°02'0 0.1
2015-Feb-23 23:30N 40°39' W 074°03'0 0.0
2015-Feb-23 22:30N 40°39' W 074°03'0 0.0
2015-Feb-23 21:30N 40°39' W 074°03'0 0.0
2015-Feb-23 20:30N 40°39' W 074°03'0 0.0
2015-Feb-23 19:33N 40°39' W 074°03'0 0.0
2015-Feb-23 18:30N 40°39' W 074°02'0 0.0
2015-Feb-23 17:30N 40°39' W 074°02'0 0.1
2015-Feb-23 16:30N 40°39' W 074°02'0 0.3
2015-Feb-23 15:33N 40°39' W 074°02'6 6.2
2015-Feb-23 14:33N 40°45' W 073°58'5 0.8
2015-Feb-23 09:09N 40°48' W 073°54'0 0.0
2015-Feb-23 06:20N 40°48' W 073°54'4 4.7
2015-Feb-23 05:33N 40°45' W 073°58'6 5.5
2015-Feb-23 04:33N 40°41' W 074°02'2 2.1
2015-Feb-23 03:33N 40°39' W 074°03'0 0.0
2015-Feb-23 02:33N 40°39' W 074°03'5 4.6
2015-Feb-23 01:33N 40°38' W 074°09'1 0.4
2015-Feb-22 23:26N 40°39' W 074°10'0 0.0
2015-Feb-22 21:31N 40°39' W 074°10'0 0.0
2015-Feb-22 20:33N 40°39' W 074°10'0 0.2
2015-Feb-22 19:28N 40°39' W 074°10'4 4.9
2015-Feb-22 18:33N 40°39' W 074°04'8 0.3
2015-Feb-21 16:12N 40°46' W 073°57'4 6.4
2015-Feb-21 15:33N 40°42' W 074°00'4 3.6
2015-Feb-21 14:33N 40°39' W 074°03'0 0.1
2015-Feb-21 13:30N 40°39' W 074°03'0 0.1
2015-Feb-21 12:30N 40°39' W 074°03'0 0.0
2015-Feb-21 11:30N 40°39' W 074°03'0 0.2
2015-Feb-21 10:30N 40°39' W 074°03'0 0.1
2015-Feb-21 09:33N 40°39' W 074°03'4 3.4
2015-Feb-21 08:29N 40°35' W 074°02'56 7.0
2015-Feb-21 00:29N 39°40' W 074°05'  

Dump ship's entire track history